Addieville, Illinois
Current Conditions -  °F | °C
As of 7:55 AM on Monday 20 Oct 2014 (Local Time) from KSAR Reporting Station
Overcast Overcast  
Wind Chill: 12°   Ceiling: 10000
Heat Index: 12°   Visibility: 10mi
Dew Point:   Wind: 5mph
Humidity: 80%   Direction: 220°SW
Pressure: 30"   Gusts: NA
Location:  38.39°N, 89.49°W
Report Text: KSAR 201255Z AUTO 22004KT 10SM SCT070 OVC100 12/09 A3000 RMK AO2 T01200086
Loading
Personal Weather Stations






























Interactive Weather Map
Tropical Storm Tracking
New forecast layout! Learn more

10-Day Weather Forecast

Advertisements
Track Severe Weather on mobile